sensor_id;sensor_type;location;lat;lon;timestamp;pressure;altitude;pressure_sealevel;temperature;humidity
7170;BME280;3626;42.656;23.312;2022-09-01T00:00:08;94388.81;;;15.87;100.00
7170;BME280;3626;42.656;23.312;2022-09-01T00:00:16;94387.22;;;15.86;100.00
7170;BME280;3626;42.656;23.312;2022-09-01T00:00:26;94384.63;;;15.86;100.00
7170;BME280;3626;42.656;23.312;2022-09-01T00:00:33;94384.63;;;15.86;100.00
7170;BME280;3626;42.656;23.312;2022-09-01T00:00:39;94385.63;;;15.85;100.00
7170;BME280;3626;42.656;23.312;2022-09-01T00:00:52;94383.81;;;15.86;100.00
7170;BME280;3626;42.656;23.312;2022-09-01T00:00:58;94388.22;;;15.85;100.00
7170;BME280;3626;42.656;23.312;2022-09-01T00:01:03;94384.00;;;15.84;100.00
7170;BME280;3626;42.656;23.312;2022-09-01T00:01:15;94384.84;;;15.85;100.00
7170;BME280;3626;42.656;23.312;2022-09-01T00:01:25;94387.44;;;15.85;100.00
7170;BME280;3626;42.656;23.312;2022-09-01T00:01:31;94387.44;;;15.85;100.00
7170;BME280;3626;42.656;23.312;2022-09-01T00:01:40;94395.03;;;15.86;100.00
7170;BME280;3626;42.656;23.312;2022-09-01T00:01:49;94389.03;;;15.86;100.00
7170;BME280;3626;42.656;23.312;2022-09-01T00:01:56;94385.63;;;15.85;100.00
7170;BME280;3626;42.656;23.312;2022-09-01T00:02:02;94385.41;;;15.87;100.00
7170;BME280;3626;42.656;23.312;2022-09-01T00:02:13;94388.03;;;15.87;100.00
7170;BME280;3626;42.656;23.312;2022-09-01T00:02:20;94387.00;;;15.88;100.00
7170;BME280;3626;42.656;23.312;2022-09-01T00:02:25;94391.41;;;15.87;100.00
7170;BME280;3626;42.656;23.312;2022-09-01T00:02:33;94384.41;;;15.88;100.00
7170;BME280;3626;42.656;23.312;2022-09-01T00:02:39;94382.03;;;15.86;100.00
7170;BME280;3626;42.656;23.312;2022-09-01T00:02:44;94388.81;;;15.87;100.00
7170;BME280;3626;42.656;23.312;2022-09-01T00:02:52;94387.00;;;15.88;100.00
7170;BME280;3626;42.656;23.312;2022-09-01T00:02:57;94385.41;;;15.87;100.00
7170;BME280;3626;42.656;23.312;2022-09-01T00:03:03;94391.63;;;15.86;100.00
7170;BME280;3626;42.656;23.312;2022-09-01T00:03:09;94389.03;;;15.86;100.00
7170;BME280;3626;42.656;23.312;2022-09-01T00:03:16;94380.22;;;15.87;100.00
7170;BME280;3626;42.656;23.312;2022-09-01T00:03:22;94386.44;;;15.86;100.00
7170;BME280;3626;42.656;23.312;2022-09-01T00:03:28;94392.44;;;15.86;100.00
7170;BME280;3626;42.656;23.312;2022-09-01T00:03:34;94388.03;;;15.87;100.00
7170;BME280;3626;42.656;23.312;2022-09-01T00:03:40;94389.81;;;15.86;100.00
7170;BME280;3626;42.656;23.312;2022-09-01T00:03:47;94380.22;;;15.87;100.00
7170;BME280;3626;42.656;23.312;2022-09-01T00:03:53;94384.63;;;15.86;100.00
7170;BME280;3626;42.656;23.312;2022-09-01T00:03:59;94385.41;;;15.87;100.00
7170;BME280;3626;42.656;23.312;2022-09-01T00:04:09;94385.41;;;15.87;100.00
7170;BME280;3626;42.656;23.312;2022-09-01T00:04:17;94389.03;;;15.86;100.00
7170;BME280;3626;42.656;23.312;2022-09-01T00:04:25;94389.03;;;15.86;100.00
7170;BME280;3626;42.656;23.312;2022-09-01T00:04:31;94387.44;;;15.85;100.00
7170;BME280;3626;42.656;23.312;2022-09-01T00:04:37;94382.22;;;15.85;100.00
7170;BME280;3626;42.656;23.312;2022-09-01T00:04:44;94389.03;;;15.86;100.00
7170;BME280;3626;42.656;23.312;2022-09-01T00:04:49;94385.63;;;15.85;100.00
7170;BME280;3626;42.656;23.312;2022-09-01T00:04:57;94386.44;;;15.86;100.00
7170;BME280;3626;42.656;23.312;2022-09-01T00:05:04;94385.63;;;15.85;100.00
7170;BME280;3626;42.656;23.312;2022-09-01T00:05:11;94383.81;;;15.86;100.00
7170;BME280;3626;42.656;23.312;2022-09-01T00:05:17;94383.03;;;15.85;100.00
7170;BME280;3626;42.656;23.312;2022-09-01T00:05:23;94381.22;;;15.86;100.00
7170;BME280;3626;42.656;23.312;2022-09-01T00:05:29;94386.44;;;15.86;100.00
7170;BME280;3626;42.656;23.312;2022-09-01T00:05:37;94385.63;;;15.85;100.00
7170;BME280;3626;42.656;23.312;2022-09-01T00:05:43;94383.81;;;15.86;100.00
7170;BME280;3626;42.656;23.312;2022-09-01T00:05:50;94383.81;;;15.86;100.00
7170;BME280;3626;42.656;23.312;2022-09-01T00:05:59;94383.03;;;15.85;100.00
7170;BME280;3626;42.656;23.312;2022-09-01T00:06:05;94382.22;;;15.85;100.00
7170;BME280;3626;42.656;23.312;2022-09-01T00:06:14;94383.81;;;15.86;100.00
7170;BME280;3626;42.656;23.312;2022-09-01T00:06:26;94385.63;;;15.85;100.00
7170;BME280;3626;42.656;23.312;2022-09-01T00:06:32;94381.41;;;15.84;100.00
7170;BME280;3626;42.656;23.312;2022-09-01T00:06:39;94387.44;;;15.85;100.00
7170;BME280;3626;42.656;23.312;2022-09-01T00:06:45;94380.63;;;15.84;100.00
7170;BME280;3626;42.656;23.312;2022-09-01T00:06:53;94381.41;;;15.84;100.00
7170;BME280;3626;42.656;23.312;2022-09-01T00:06:59;94379.81;;;15.83;100.00
7170;BME280;3626;42.656;23.312;2022-09-01T00:07:05;94379.03;;;15.83;100.00
7170;BME280;3626;42.656;23.312;2022-09-01T00:07:13;94381.41;;;15.84;100.00
7170;BME280;3626;42.656;23.312;2022-09-01T00:07:20;94381.41;;;15.84;100.00
7170;BME280;3626;42.656;23.312;2022-09-01T00:07:26;94380.63;;;15.84;100.00
7170;BME280;3626;42.656;23.312;2022-09-01T00:07:34;94379.81;;;15.83;100.00
7170;BME280;3626;42.656;23.312;2022-09-01T00:07:40;94384.22;;;15.83;100.00
7170;BME280;3626;42.656;23.312;2022-09-01T00:07:46;94383.44;;;15.82;100.00
7170;BME280;3626;42.656;23.312;2022-09-01T00:07:52;94378.22;;;15.82;100.00
7170;BME280;3626;42.656;23.312;2022-09-01T00:07:58;94385.25;;;15.82;100.00
7170;BME280;3626;42.656;23.312;2022-09-01T00:08:04;94381.84;;;15.81;100.00
7170;BME280;3626;42.656;23.312;2022-09-01T00:08:10;94384.44;;;15.81;100.00
7170;BME280;3626;42.656;23.312;2022-09-01T00:08:16;94383.44;;;15.82;100.00
7170;BME280;3626;42.656;23.312;2022-09-01T00:08:22;94383.44;;;15.82;100.00
7170;BME280;3626;42.656;23.312;2022-09-01T00:08:29;94378.22;;;15.82;100.00
7170;BME280;3626;42.656;23.312;2022-09-01T00:08:34;94386.03;;;15.82;100.00
7170;BME280;3626;42.656;23.312;2022-09-01T00:08:40;94383.44;;;15.82;100.00
7170;BME280;3626;42.656;23.312;2022-09-01T00:08:47;94385.03;;;15.83;100.00
7170;BME280;3626;42.656;23.312;2022-09-01T00:08:54;94385.25;;;15.82;100.00
7170;BME280;3626;42.656;23.312;2022-09-01T00:09:04;94380.81;;;15.82;100.00
7170;BME280;3626;42.656;23.312;2022-09-01T00:09:12;94383.44;;;15.82;100.00
7170;BME280;3626;42.656;23.312;2022-09-01T00:09:19;94382.41;;;15.83;100.00
7170;BME280;3626;42.656;23.312;2022-09-01T00:09:26;94381.63;;;15.83;100.00
7170;BME280;3626;42.656;23.312;2022-09-01T00:09:33;94385.03;;;15.83;100.00
7170;BME280;3626;42.656;23.312;2022-09-01T00:09:39;94379.81;;;15.83;100.00
7170;BME280;3626;42.656;23.312;2022-09-01T00:09:45;94379.81;;;15.83;100.00
7170;BME280;3626;42.656;23.312;2022-09-01T00:09:51;94379.81;;;15.83;100.00
7170;BME280;3626;42.656;23.312;2022-09-01T00:09:57;94376.19;;;15.84;100.00
7170;BME280;3626;42.656;23.312;2022-09-01T00:10:05;94382.22;;;15.85;100.00
7170;BME280;3626;42.656;23.312;2022-09-01T00:10:12;94383.22;;;15.84;100.00
7170;BME280;3626;42.656;23.312;2022-09-01T00:10:18;94379.81;;;15.83;100.00
7170;BME280;3626;42.656;23.312;2022-09-01T00:10:24;94379.03;;;15.83;100.00
7170;BME280;3626;42.656;23.312;2022-09-01T00:10:30;94377.22;;;15.83;100.00
7170;BME280;3626;42.656;23.312;2022-09-01T00:10:36;94385.81;;;15.84;100.00
7170;BME280;3626;42.656;23.312;2022-09-01T00:10:42;94379.81;;;15.83;100.00
7170;BME280;3626;42.656;23.312;2022-09-01T00:10:47;94378.81;;;15.84;100.00
7170;BME280;3626;42.656;23.312;2022-09-01T00:10:53;94381.63;;;15.83;100.00
7170;BME280;3626;42.656;23.312;2022-09-01T00:10:59;94380.63;;;15.84;100.00
7170;BME280;3626;42.656;23.312;2022-09-01T00:11:04;94382.41;;;15.83;100.00
7170;BME280;3626;42.656;23.312;2022-09-01T00:11:10;94379.81;;;15.83;100.00
7170;BME280;3626;42.656;23.312;2022-09-01T00:11:16;94376.19;;;15.84;100.00
7170;BME280;3626;42.656;23.312;2022-09-01T00:11:23;94380.63;;;15.84;100.00
7170;BME280;3626;42.656;23.312;2022-09-01T00:11:30;94383.22;;;15.84;100.00
7170;BME280;3626;42.656;23.312;2022-09-01T00:11:37;94375.63;;;15.82;100.00
7170;BME280;3626;42.656;23.312;2022-09-01T00:11:49;94381.63;;;15.83;100.00
7170;BME280;3626;42.656;23.312;2022-09-01T00:11:57;94377.44;;;15.82;100.00
7170;BME280;3626;42.656;23.312;2022-09-01T00:12:05;94379.03;;;15.83;100.00
7170;BME280;3626;42.656;23.312;2022-09-01T00:12:13;94380.03;;;15.82;100.00
7170;BME280;3626;42.656;23.312;2022-09-01T00:12:19;94375.84;;;15.81;100.00
7170;BME280;3626;42.656;23.312;2022-09-01T00:12:28;94379.22;;;15.81;100.00
7170;BME280;3626;42.656;23.312;2022-09-01T00:12:35;94380.03;;;15.82;100.00
7170;BME280;3626;42.656;23.312;2022-09-01T00:12:41;94381.03;;;15.81;100.00
7170;BME280;3626;42.656;23.312;2022-09-01T00:12:47;94376.63;;;15.81;100.00
7170;BME280;3626;42.656;23.312;2022-09-01T00:12:53;94378.44;;;15.81;100.00
7170;BME280;3626;42.656;23.312;2022-09-01T00:12:59;94384.44;;;15.81;100.00
7170;BME280;3626;42.656;23.312;2022-09-01T00:13:05;94376.81;;;15.80;100.00
7170;BME280;3626;42.656;23.312;2022-09-01T00:13:11;94379.22;;;15.81;100.00
7170;BME280;3626;42.656;23.312;2022-09-01T00:13:17;94377.66;;;15.80;100.00
7170;BME280;3626;42.656;23.312;2022-09-01T00:13:22;94375.03;;;15.80;100.00
7170;BME280;3626;42.656;23.312;2022-09-01T00:13:29;94374.03;;;15.81;100.00
7170;BME280;3626;42.656;23.312;2022-09-01T00:13:38;94374.03;;;15.81;100.00
7170;BME280;3626;42.656;23.312;2022-09-01T00:13:43;94381.84;;;15.81;100.00
7170;BME280;3626;42.656;23.312;2022-09-01T00:13:52;94376.03;;;15.79;100.00
7170;BME280;3626;42.656;23.312;2022-09-01T00:14:00;94375.03;;;15.80;100.00
7170;BME280;3626;42.656;23.312;2022-09-01T00:14:07;94373.41;;;15.79;100.00
7170;BME280;3626;42.656;23.312;2022-09-01T00:14:14;94372.63;;;15.79;100.00
7170;BME280;3626;42.656;23.312;2022-09-01T00:14:21;94377.81;;;15.79;100.00
7170;BME280;3626;42.656;23.312;2022-09-01T00:14:29;94377.81;;;15.79;100.00
7170;BME280;3626;42.656;23.312;2022-09-01T00:14:38;94374.44;;;15.78;100.00
7170;BME280;3626;42.656;23.312;2022-09-01T00:14:45;94371.81;;;15.78;100.00
7170;BME280;3626;42.656;23.312;2022-09-01T00:14:51;94371.81;;;15.78;100.00
7170;BME280;3626;42.656;23.312;2022-09-01T00:14:57;94377.81;;;15.79;100.00
7170;BME280;3626;42.656;23.312;2022-09-01T00:15:05;94375.44;;;15.77;100.00
7170;BME280;3626;42.656;23.312;2022-09-01T00:15:11;94370.25;;;15.77;100.00
7170;BME280;3626;42.656;23.312;2022-09-01T00:15:17;94374.66;;;15.77;100.00
7170;BME280;3626;42.656;23.312;2022-09-01T00:15:23;94376.25;;;15.78;100.00
7170;BME280;3626;42.656;23.312;2022-09-01T00:15:29;94373.84;;;15.76;100.00
7170;BME280;3626;42.656;23.312;2022-09-01T00:15:35;94369.44;;;15.77;100.00
7170;BME280;3626;42.656;23.312;2022-09-01T00:15:40;94369.44;;;15.77;100.00
7170;BME280;3626;42.656;23.312;2022-09-01T00:15:47;94375.44;;;15.77;100.00
7170;BME280;3626;42.656;23.312;2022-09-01T00:15:53;94369.44;;;15.77;100.00
7170;BME280;3626;42.656;23.312;2022-09-01T00:15:59;94369.22;;;15.78;100.00
7170;BME280;3626;42.656;23.312;2022-09-01T00:16:05;94373.63;;;15.78;100.00
7170;BME280;3626;42.656;23.312;2022-09-01T00:16:13;94372.84;;;15.77;100.00
7170;BME280;3626;42.656;23.312;2022-09-01T00:16:21;94369.22;;;15.78;100.00
7170;BME280;3626;42.656;23.312;2022-09-01T00:16:27;94373.03;;;15.75;100.00
7170;BME280;3626;42.656;23.312;2022-09-01T00:16:33;94370.41;;;15.75;100.00
7170;BME280;3626;42.656;23.312;2022-09-01T00:16:39;94374.66;;;15.77;100.00
7170;BME280;3626;42.656;23.312;2022-09-01T00:16:45;94379.84;;;15.77;100.00
7170;BME280;3626;42.656;23.312;2022-09-01T00:16:51;94370.41;;;15.75;100.00
7170;BME280;3626;42.656;23.312;2022-09-01T00:16:57;94370.41;;;15.75;100.00
7170;BME280;3626;42.656;23.312;2022-09-01T00:17:05;94373.84;;;15.76;100.00
7170;BME280;3626;42.656;23.312;2022-09-01T00:17:11;94374.66;;;15.77;100.00
7170;BME280;3626;42.656;23.312;2022-09-01T00:17:17;94371.03;;;15.78;100.00
7170;BME280;3626;42.656;23.312;2022-09-01T00:17:23;94373.63;;;15.78;100.00
7170;BME280;3626;42.656;23.312;2022-09-01T00:17:29;94373.63;;;15.78;100.00
7170;BME280;3626;42.656;23.312;2022-09-01T00:17:36;94372.03;;;15.77;100.00
7170;BME280;3626;42.656;23.312;2022-09-01T00:17:42;94368.66;;;15.76;100.00
7170;BME280;3626;42.656;23.312;2022-09-01T00:17:47;94369.44;;;15.77;100.00
7170;BME280;3626;42.656;23.312;2022-09-01T00:17:53;94374.84;;;15.75;100.00
7170;BME280;3626;42.656;23.312;2022-09-01T00:17:59;94372.22;;;15.75;100.00
7170;BME280;3626;42.656;23.312;2022-09-01T00:18:05;94373.03;;;15.75;100.00
7170;BME280;3626;42.656;23.312;2022-09-01T00:18:10;94369.44;;;15.77;100.00
7170;BME280;3626;42.656;23.312;2022-09-01T00:18:16;94368.44;;;15.78;100.00
7170;BME280;3626;42.656;23.312;2022-09-01T00:18:22;94369.44;;;15.77;100.00
7170;BME280;3626;42.656;23.312;2022-09-01T00:18:27;94369.44;;;15.77;100.00
7170;BME280;3626;42.656;23.312;2022-09-01T00:18:33;94367.03;;;15.75;100.00
7170;BME280;3626;42.656;23.312;2022-09-01T00:18:40;94373.03;;;15.75;100.00
7170;BME280;3626;42.656;23.312;2022-09-01T00:18:49;94373.84;;;15.76;100.00
7170;BME280;3626;42.656;23.312;2022-09-01T00:18:56;94367.81;;;15.75;100.00
7170;BME280;3626;42.656;23.312;2022-09-01T00:19:03;94368.84;;;15.74;100.00
7170;BME280;3626;42.656;23.312;2022-09-01T00:19:09;94373.25;;;15.74;100.00
7170;BME280;3626;42.656;23.312;2022-09-01T00:19:15;94372.44;;;15.73;100.00
7170;BME280;3626;42.656;23.312;2022-09-01T00:19:22;94373.44;;;15.72;100.00
7170;BME280;3626;42.656;23.312;2022-09-01T00:19:28;94369.03;;;15.73;100.00
7170;BME280;3626;42.656;23.312;2022-09-01T00:19:34;94371.03;;;15.71;100.00
7170;BME280;3626;42.656;23.312;2022-09-01T00:19:40;94368.25;;;15.72;100.00
7170;BME280;3626;42.656;23.312;2022-09-01T00:19:46;94373.63;;;15.71;100.00
7170;BME280;3626;42.656;23.312;2022-09-01T00:19:52;94373.25;;;15.61;100.00
7170;BME280;3626;42.656;23.312;2022-09-01T00:19:58;94373.06;;;15.49;100.00
7170;BME280;3626;42.656;23.312;2022-09-01T00:20:05;94372.06;;;15.43;100.00
7170;BME280;3626;42.656;23.312;2022-09-01T00:20:11;94366.88;;;15.43;100.00
7170;BME280;3626;42.656;23.312;2022-09-01T00:20:18;94367.66;;;15.37;100.00
7170;BME280;3626;42.656;23.312;2022-09-01T00:20:24;94366.66;;;15.32;100.00
7170;BME280;3626;42.656;23.312;2022-09-01T00:20:30;94371.47;;;15.28;100.00
7170;BME280;3626;42.656;23.312;2022-09-01T00:20:36;94369.88;;;15.27;100.00
7170;BME280;3626;42.656;23.312;2022-09-01T00:20:42;94364.69;;;15.27;100.00
7170;BME280;3626;42.656;23.312;2022-09-01T00:20:47;94361.88;;;15.29;100.00
7170;BME280;3626;42.656;23.312;2022-09-01T00:20:53;94369.66;;;15.29;100.00
7170;BME280;3626;42.656;23.312;2022-09-01T00:21:03;94367.28;;;15.27;100.00
7170;BME280;3626;42.656;23.312;2022-09-01T00:21:10;94366.28;;;15.28;100.00
7170;BME280;3626;42.656;23.312;2022-09-01T00:21:17;94371.06;;;15.31;100.00
7170;BME280;3626;42.656;23.312;2022-09-01T00:21:27;94365.66;;;15.33;100.00
7170;BME280;3626;42.656;23.312;2022-09-01T00:21:35;94358.47;;;15.35;100.00
7170;BME280;3626;42.656;23.312;2022-09-01T00:21:43;94362.66;;;15.36;100.00
7170;BME280;3626;42.656;23.312;2022-09-01T00:21:49;94368.66;;;15.36;100.00
7170;BME280;3626;42.656;23.312;2022-09-01T00:21:56;94367.66;;;15.37;100.00
7170;BME280;3626;42.656;23.312;2022-09-01T00:22:03;94365.66;;;15.39;100.00
7170;BME280;3626;42.656;23.312;2022-09-01T00:22:09;94363.06;;;15.39;100.00
7170;BME280;3626;42.656;23.312;2022-09-01T00:22:15;94367.25;;;15.40;100.00
7170;BME280;3626;42.656;23.312;2022-09-01T00:22:21;94375.69;;;15.42;100.00
7170;BME280;3626;42.656;23.312;2022-09-01T00:22:26;94367.88;;;15.42;100.00
7170;BME280;3626;42.656;23.312;2022-09-01T00:22:33;94362.69;;;15.42;100.00
7170;BME280;3626;42.656;23.312;2022-09-01T00:22:39;94367.03;;;15.42;100.00
7170;BME280;3626;42.656;23.312;2022-09-01T00:22:45;94364.25;;;15.43;100.00
7170;BME280;3626;42.656;23.312;2022-09-01T00:22:51;94365.06;;;15.44;100.00
7170;BME280;3626;42.656;23.312;2022-09-01T00:22:56;94369.25;;;15.45;100.00
7170;BME280;3626;42.656;23.312;2022-09-01T00:23:02;94361.66;;;15.43;100.00
7170;BME280;3626;42.656;23.312;2022-09-01T00:23:08;94360.66;;;15.44;100.00
7170;BME280;3626;42.656;23.312;2022-09-01T00:23:14;94358.84;;;15.45;100.00
7170;BME280;3626;42.656;23.312;2022-09-01T00:23:19;94363.88;;;15.46;100.00
7170;BME280;3626;42.656;23.312;2022-09-01T00:23:26;94365.66;;;15.46;100.00
7170;BME280;3626;42.656;23.312;2022-09-01T00:23:31;94364.66;;;15.47;100.00
7170;BME280;3626;42.656;23.312;2022-09-01T00:23:37;94364.66;;;15.47;100.00
7170;BME280;3626;42.656;23.312;2022-09-01T00:23:43;94365.25;;;15.49;100.00
7170;BME280;3626;42.656;23.312;2022-09-01T00:23:50;94363.66;;;15.48;100.00
7170;BME280;3626;42.656;23.312;2022-09-01T00:23:56;94367.06;;;15.48;100.00
7170;BME280;3626;42.656;23.312;2022-09-01T00:24:02;94367.84;;;15.49;100.00
7170;BME280;3626;42.656;23.312;2022-09-01T00:24:09;94366.84;;;15.50;100.00
7170;BME280;3626;42.656;23.312;2022-09-01T00:24:17;94359.03;;;15.50;100.00
7170;BME280;3626;42.656;23.312;2022-09-01T00:24:23;94366.84;;;15.50;100.00
7170;BME280;3626;42.656;23.312;2022-09-01T00:24:31;94363.44;;;15.49;100.00
7170;BME280;3626;42.656;23.312;2022-09-01T00:24:37;94362.47;;;15.50;100.00
7170;BME280;3626;42.656;23.312;2022-09-01T00:24:43;94365.06;;;15.50;100.00
7170;BME280;3626;42.656;23.312;2022-09-01T00:24:49;94365.06;;;15.50;100.00
7170;BME280;3626;42.656;23.312;2022-09-01T00:24:56;94370.28;;;15.50;100.00
7170;BME280;3626;42.656;23.312;2022-09-01T00:25:02;94369.44;;;15.50;100.00
7170;BME280;3626;42.656;23.312;2022-09-01T00:25:08;94365.25;;;15.49;100.00
7170;BME280;3626;42.656;23.312;2022-09-01T00:25:14;94365.25;;;15.49;100.00
7170;BME280;3626;42.656;23.312;2022-09-01T00:25:23;94363.44;;;15.49;100.00
7170;BME280;3626;42.656;23.312;2022-09-01T00:25:29;94361.84;;;15.48;100.00
7170;BME280;3626;42.656;23.312;2022-09-01T00:25:35;94368.66;;;15.49;100.00
7170;BME280;3626;42.656;23.312;2022-09-01T00:25:41;94372.03;;;15.50;100.00
7170;BME280;3626;42.656;23.312;2022-09-01T00:25:47;94361.63;;;15.50;100.00
7170;BME280;3626;42.656;23.312;2022-09-01T00:25:53;94361.06;;;15.48;100.00
7170;BME280;3626;42.656;23.312;2022-09-01T00:25:58;94366.25;;;15.48;100.00
7170;BME280;3626;42.656;23.312;2022-09-01T00:26:05;94367.44;;;15.45;100.00
7170;BME280;3626;42.656;23.312;2022-09-01T00:26:11;94365.66;;;15.46;100.00
7170;BME280;3626;42.656;23.312;2022-09-01T00:26:17;94367.88;;;15.42;100.00
7170;BME280;3626;42.656;23.312;2022-09-01T00:26:23;94362.84;;;15.41;100.00
7170;BME280;3626;42.656;23.312;2022-09-01T00:26:29;94361.06;;;15.41;100.00
7170;BME280;3626;42.656;23.312;2022-09-01T00:26:36;94359.47;;;15.40;100.00
7170;BME280;3626;42.656;23.312;2022-09-01T00:26:42;94365.47;;;15.41;100.00
7170;BME280;3626;42.656;23.312;2022-09-01T00:26:48;94361.06;;;15.41;100.00
7170;BME280;3626;42.656;23.312;2022-09-01T00:26:55;94367.25;;;15.40;100.00
7170;BME280;3626;42.656;23.312;2022-09-01T00:27:02;94364.88;;;15.39;100.00
7170;BME280;3626;42.656;23.312;2022-09-01T00:27:08;94364.06;;;15.38;100.00
7170;BME280;3626;42.656;23.312;2022-09-01T00:27:14;94362.28;;;15.39;100.00
7170;BME280;3626;42.656;23.312;2022-09-01T00:27:19;94362.28;;;15.39;100.00
7170;BME280;3626;42.656;23.312;2022-09-01T00:27:25;94361.66;;;15.37;100.00
7170;BME280;3626;42.656;23.312;2022-09-01T00:27:31;94365.28;;;15.36;100.00
7170;BME280;3626;42.656;23.312;2022-09-01T00:27:37;94364.47;;;15.35;100.00
7170;BME280;3626;42.656;23.312;2022-09-01T00:27:43;94362.88;;;15.34;100.00
7170;BME280;3626;42.656;23.312;2022-09-01T00:27:50;94364.47;;;15.35;100.00
7170;BME280;3626;42.656;23.312;2022-09-01T00:27:56;94364.47;;;15.35;100.00
7170;BME280;3626;42.656;23.312;2022-09-01T00:28:04;94363.69;;;15.35;100.00
7170;BME280;3626;42.656;23.312;2022-09-01T00:28:10;94360.28;;;15.34;100.00
7170;BME280;3626;42.656;23.312;2022-09-01T00:28:16;94364.47;;;15.35;100.00
7170;BME280;3626;42.656;23.312;2022-09-01T00:28:21;94367.88;;;15.36;100.00
7170;BME280;3626;42.656;23.312;2022-09-01T00:28:27;94362.88;;;15.34;100.00
7170;BME280;3626;42.656;23.312;2022-09-01T00:28:33;94365.47;;;15.34;100.00
7170;BME280;3626;42.656;23.312;2022-09-01T00:28:39;94362.88;;;15.34;100.00
7170;BME280;3626;42.656;23.312;2022-09-01T00:28:45;94363.84;;;15.33;100.00
7170;BME280;3626;42.656;23.312;2022-09-01T00:28:51;94360.69;;;15.31;100.00
7170;BME280;3626;42.656;23.312;2022-09-01T00:28:57;94365.06;;;15.31;100.00
7170;BME280;3626;42.656;23.312;2022-09-01T00:29:03;94362.66;;;15.29;100.00
7170;BME280;3626;42.656;23.312;2022-09-01T00:29:09;94366.88;;;15.30;100.00
7170;BME280;3626;42.656;23.312;2022-09-01T00:29:16;94362.66;;;15.29;100.00
7170;BME280;3626;42.656;23.312;2022-09-01T00:29:23;94373.06;;;15.29;100.00
7170;BME280;3626;42.656;23.312;2022-09-01T00:29:29;94367.06;;;15.29;100.00
7170;BME280;3626;42.656;23.312;2022-09-01T00:29:35;94362.06;;;15.27;100.00
7170;BME280;3626;42.656;23.312;2022-09-01T00:29:41;94370.66;;;15.28;100.00
7170;BME280;3626;42.656;23.312;2022-09-01T00:29:46;94362.06;;;15.27;100.00
7170;BME280;3626;42.656;23.312;2022-09-01T00:29:52;94370.66;;;15.28;100.00
7170;BME280;3626;42.656;23.312;2022-09-01T00:29:58;94369.47;;;15.23;100.00
7170;BME280;3626;42.656;23.312;2022-09-01T00:30:05;94365.28;;;15.22;100.00
7170;BME280;3626;42.656;23.312;2022-09-01T00:30:11;94366.06;;;15.23;100.00
7170;BME280;3626;42.656;23.312;2022-09-01T00:30:18;94361.88;;;15.22;100.00
7170;BME280;3626;42.656;23.312;2022-09-01T00:30:25;94366.47;;;15.20;100.00
7170;BME280;3626;42.656;23.312;2022-09-01T00:30:31;94363.88;;;15.20;100.00
7170;BME280;3626;42.656;23.312;2022-09-01T00:30:36;94366.47;;;15.20;100.00
7170;BME280;3626;42.656;23.312;2022-09-01T00:30:43;94363.28;;;15.18;100.00
7170;BME280;3626;42.656;23.312;2022-09-01T00:30:49;94362.28;;;15.19;100.00
7170;BME280;3626;42.656;23.312;2022-09-01T00:30:55;94364.88;;;15.19;100.00
7170;BME280;3626;42.656;23.312;2022-09-01T00:31:01;94366.69;;;15.18;100.00
7170;BME280;3626;42.656;23.312;2022-09-01T00:31:08;94370.06;;;15.19;100.00
7170;BME280;3626;42.656;23.312;2022-09-01T00:31:15;94361.47;;;15.18;100.00
7170;BME280;3626;42.656;23.312;2022-09-01T00:31:21;94359.88;;;15.17;100.00
7170;BME280;3626;42.656;23.312;2022-09-01T00:31:27;94365.09;;;15.17;100.00
7170;BME280;3626;42.656;23.312;2022-09-01T00:31:33;94362.28;;;15.19;100.00
7170;BME280;3626;42.656;23.312;2022-09-01T00:31:39;94367.47;;;15.19;100.00
7170;BME280;3626;42.656;23.312;2022-09-01T00:31:45;94370.06;;;15.19;100.00
7170;BME280;3626;42.656;23.312;2022-09-01T00:31:51;94364.66;;;15.20;100.00
7170;BME280;3626;42.656;23.312;2022-09-01T00:31:57;94363.88;;;15.20;100.00
7170;BME280;3626;42.656;23.312;2022-09-01T00:32:03;94363.88;;;15.20;100.00
7170;BME280;3626;42.656;23.312;2022-09-01T00:32:09;94366.28;;;15.21;100.00
7170;BME280;3626;42.656;23.312;2022-09-01T00:32:15;94365.28;;;15.22;100.00
7170;BME280;3626;42.656;23.312;2022-09-01T00:32:21;94360.88;;;15.23;100.00
7170;BME280;3626;42.656;23.312;2022-09-01T00:32:27;94366.69;;;15.25;100.00
7170;BME280;3626;42.656;23.312;2022-09-01T00:32:33;94370.28;;;15.24;100.00
7170;BME280;3626;42.656;23.312;2022-09-01T00:32:39;94363.47;;;15.23;100.00
7170;BME280;3626;42.656;23.312;2022-09-01T00:32:45;94368.47;;;15.24;100.00
7170;BME280;3626;42.656;23.312;2022-09-01T00:32:51;94369.47;;;15.23;100.00
7170;BME280;3626;42.656;23.312;2022-09-01T00:32:57;94362.47;;;15.24;100.00
7170;BME280;3626;42.656;23.312;2022-09-01T00:33:03;94363.47;;;15.23;100.00
7170;BME280;3626;42.656;23.312;2022-09-01T00:33:09;94372.88;;;15.24;100.00
7170;BME280;3626;42.656;23.312;2022-09-01T00:33:14;94375.47;;;15.24;100.00
7170;BME280;3626;42.656;23.312;2022-09-01T00:33:20;94370.09;;;15.25;100.00
7170;BME280;3626;42.656;23.312;2022-09-01T00:33:26;94366.69;;;15.25;100.00
7170;BME280;3626;42.656;23.312;2022-09-01T00:33:32;94366.69;;;15.25;100.00
7170;BME280;3626;42.656;23.312;2022-09-01T00:33:38;94367.50;;;15.25;100.00
7170;BME280;3626;42.656;23.312;2022-09-01T00:33:44;94369.28;;;15.25;100.00
7170;BME280;3626;42.656;23.312;2022-09-01T00:33:50;94369.28;;;15.25;100.00
7170;BME280;3626;42.656;23.312;2022-09-01T00:33:56;94371.06;;;15.24;100.00
7170;BME280;3626;42.656;23.312;2022-09-01T00:34:02;94371.88;;;15.25;100.00
7170;BME280;3626;42.656;23.312;2022-09-01T00:34:09;94366.69;;;15.25;100.00
7170;BME280;3626;42.656;23.312;2022-09-01T00:34:16;94370.88;;;15.26;100.00
7170;BME280;3626;42.656;23.312;2022-09-01T00:34:22;94369.88;;;15.27;100.00
7170;BME280;3626;42.656;23.312;2022-09-01T00:34:27;94374.28;;;15.27;100.00
7170;BME280;3626;42.656;23.312;2022-09-01T00:34:33;94369.09;;;15.27;100.00
7170;BME280;3626;42.656;23.312;2022-09-01T00:34:40;94369.88;;;15.27;100.00